createdAt,value
2019-06-10T00:00:17.950Z,44.04
2019-06-10T00:02:53.694Z,43.91
2019-06-10T00:06:32.517Z,43.81
2019-06-10T00:08:50.650Z,43.67
2019-06-10T00:11:24.144Z,43.42
2019-06-10T00:13:57.080Z,43.42
2019-06-10T00:16:31.406Z,43.38
2019-06-10T00:19:09.556Z,43.11
2019-06-10T00:21:42.301Z,43.10
2019-06-10T00:24:15.647Z,43.14
2019-06-10T00:26:50.871Z,42.91
2019-06-10T00:29:23.253Z,42.96
2019-06-10T00:31:58.269Z,42.87
2019-06-10T00:34:35.012Z,42.63
2019-06-10T00:37:09.221Z,42.84
2019-06-10T00:39:41.615Z,42.84
2019-06-10T00:42:15.424Z,42.93
2019-06-10T00:44:50.786Z,42.93
2019-06-10T00:47:24.751Z,42.83
2019-06-10T00:49:57.755Z,42.97
2019-06-10T00:52:31.054Z,43.18
2019-06-10T00:55:04.871Z,43.36
2019-06-10T00:57:41.700Z,43.02
2019-06-10T01:00:25.198Z,43.12
2019-06-10T01:02:51.793Z,43.05
2019-06-10T01:05:25.275Z,43.16
2019-06-10T01:07:58.346Z,43.26
2019-06-10T01:10:31.728Z,43.30
2019-06-10T01:13:05.114Z,43.24
2019-06-10T01:15:38.396Z,43.50
2019-06-10T01:18:28.686Z,43.47
2019-06-10T01:20:46.236Z,43.57
2019-06-10T01:23:21.650Z,43.63
2019-06-10T01:25:57.067Z,43.59
2019-06-10T01:28:31.374Z,43.74
2019-06-10T01:31:12.114Z,43.79
2019-06-10T01:33:44.412Z,44.04
2019-06-10T01:36:21.075Z,43.91
2019-06-10T01:38:55.541Z,43.86
2019-06-10T01:41:30.590Z,43.83
2019-06-10T01:44:03.739Z,43.96
2019-06-10T01:46:36.703Z,43.99
2019-06-10T01:49:12.914Z,43.94
2019-06-10T01:51:51.553Z,44.03
2019-06-10T01:54:25.183Z,44.11
2019-06-10T01:56:58.103Z,44.20
2019-06-10T01:59:31.347Z,44.09
2019-06-10T02:02:09.793Z,44.20
2019-06-10T02:04:43.227Z,44.11
2019-06-10T02:07:18.464Z,44.11
2019-06-10T02:09:51.816Z,44.41
2019-06-10T02:12:24.884Z,44.28
2019-06-10T02:14:57.978Z,44.42
2019-06-10T02:17:31.458Z,44.50
2019-06-10T02:20:05.031Z,44.57
2019-06-10T02:22:40.951Z,44.58
2019-06-10T02:25:14.878Z,44.47
2019-06-10T02:27:50.634Z,44.70
2019-06-10T02:30:38.969Z,44.96
2019-06-10T02:32:57.623Z,46.20
2019-06-10T02:35:43.992Z,47.39
2019-06-10T02:38:05.348Z,47.90
2019-06-10T02:40:38.234Z,47.62
2019-06-10T02:43:16.065Z,47.58
2019-06-10T02:45:47.493Z,47.47
2019-06-10T02:48:27.068Z,47.30
2019-06-10T02:51:30.781Z,47.37
2019-06-10T02:54:05.114Z,47.34
2019-06-10T02:56:38.323Z,47.29
2019-06-10T02:59:13.285Z,47.62
2019-06-10T03:01:46.092Z,47.79
2019-06-10T03:04:22.157Z,47.77
2019-06-10T03:06:54.414Z,47.70
2019-06-10T03:09:31.834Z,47.93
2019-06-10T03:12:04.814Z,47.87
2019-06-10T03:14:37.156Z,47.75
2019-06-10T03:17:13.824Z,48.27
2019-06-10T03:19:50.517Z,48.37
2019-06-10T03:22:22.977Z,48.73
2019-06-10T03:24:56.005Z,48.79
2019-06-10T03:27:29.117Z,48.74
2019-06-10T03:30:14.713Z,48.68
2019-06-10T03:32:42.632Z,48.84
2019-06-10T03:35:13.252Z,48.85
2019-06-10T03:37:46.347Z,49.27
2019-06-10T03:40:20.529Z,49.41
2019-06-10T03:42:53.908Z,49.61
2019-06-10T03:45:28.396Z,49.72
2019-06-10T03:48:03.662Z,49.96
2019-06-10T03:50:36.382Z,50.24
2019-06-10T03:53:09.381Z,50.24
2019-06-10T03:55:42.451Z,50.62
2019-06-10T03:58:15.560Z,50.79
2019-06-10T04:00:48.587Z,50.80
2019-06-10T04:03:24.279Z,50.96
2019-06-10T04:05:56.229Z,51.17
2019-06-10T04:08:32.931Z,51.19
2019-06-10T04:11:05.565Z,51.35
2019-06-10T04:13:38.421Z,51.25
2019-06-10T04:16:13.009Z,51.34
2019-06-10T04:18:45.962Z,51.44
2019-06-10T04:21:20.327Z,51.45
2019-06-10T04:23:53.431Z,51.78
2019-06-10T04:26:28.198Z,51.90
2019-06-10T04:29:02.464Z,51.88
2019-06-10T04:31:36.577Z,52.26
2019-06-10T04:34:09.471Z,52.26
2019-06-10T04:36:42.537Z,52.80
2019-06-10T04:39:15.449Z,52.30
2019-06-10T04:41:48.366Z,52.13
2019-06-10T04:44:23.545Z,52.77
2019-06-10T04:46:55.841Z,53.03
2019-06-10T04:49:29.825Z,53.08
2019-06-10T04:52:03.250Z,53.16
2019-06-10T04:54:36.329Z,53.57
2019-06-10T04:57:09.470Z,53.48
2019-06-10T04:59:42.938Z,53.53
2019-06-10T05:02:15.792Z,53.84
2019-06-10T05:04:49.657Z,53.75
2019-06-10T05:07:24.042Z,53.19
2019-06-10T05:09:57.345Z,53.04
2019-06-10T05:12:32.326Z,52.75
2019-06-10T05:15:04.794Z,52.56
2019-06-10T05:17:37.625Z,52.10
2019-06-10T05:20:12.530Z,52.08
2019-06-10T05:22:45.606Z,52.07
2019-06-10T05:25:19.742Z,52.19
2019-06-10T05:27:54.055Z,52.26
2019-06-10T05:30:28.183Z,52.07
2019-06-10T05:33:02.955Z,52.34
2019-06-10T05:35:36.146Z,52.28
2019-06-10T05:38:09.044Z,53.49
2019-06-10T05:40:42.749Z,53.08
2019-06-10T05:43:15.864Z,53.18
2019-06-10T05:45:48.839Z,53.15
2019-06-10T05:48:22.672Z,53.08
2019-06-10T05:51:02.598Z,53.17
2019-06-10T05:53:33.577Z,53.51
2019-06-10T05:56:05.648Z,53.09
2019-06-10T05:58:38.478Z,53.20
2019-06-10T06:01:13.222Z,53.92
2019-06-10T06:03:46.147Z,54.20
2019-06-10T06:06:19.115Z,53.34
2019-06-10T06:08:53.389Z,52.85
2019-06-10T06:11:27.359Z,52.34
2019-06-10T06:14:02.755Z,51.32
2019-06-10T06:16:36.247Z,50.55
2019-06-10T06:19:09.399Z,49.75
2019-06-10T06:21:47.417Z,49.69
2019-06-10T06:24:16.856Z,49.24
2019-06-10T06:26:49.918Z,48.16
2019-06-10T06:29:22.781Z,47.70
2019-06-10T06:31:55.730Z,48.30
2019-06-10T06:34:28.837Z,47.77
2019-06-10T06:37:02.238Z,47.62
2019-06-10T06:39:36.695Z,47.32
2019-06-10T06:42:12.558Z,47.04
2019-06-10T06:44:44.840Z,47.21
2019-06-10T06:47:17.775Z,48.20
2019-06-10T06:49:53.031Z,48.68
2019-06-10T06:52:46.407Z,48.00
2019-06-10T06:55:02.464Z,47.97
2019-06-10T06:57:36.762Z,48.02
2019-06-10T07:00:35.331Z,46.73
2019-06-10T07:02:46.265Z,46.39
2019-06-10T07:05:19.161Z,45.85
2019-06-10T07:07:52.905Z,46.57
2019-06-10T07:10:26.082Z,47.02
2019-06-10T07:13:02.871Z,47.31
2019-06-10T07:15:48.062Z,47.05
2019-06-10T07:18:23.156Z,47.93
2019-06-10T07:20:55.637Z,47.78
2019-06-10T07:23:28.548Z,47.94
2019-06-10T07:26:02.286Z,48.65
2019-06-10T07:28:37.490Z,49.15
2019-06-10T07:31:20.882Z,49.73
2019-06-10T07:33:47.250Z,50.08
2019-06-10T07:36:19.922Z,50.04
2019-06-10T07:38:53.934Z,50.19
2019-06-10T07:41:27.062Z,50.48
2019-06-10T07:43:59.908Z,49.94
2019-06-10T07:46:33.592Z,49.36
2019-06-10T07:49:07.565Z,49.77
2019-06-10T07:51:42.131Z,49.73
2019-06-10T07:54:15.418Z,50.16
2019-06-10T07:56:50.570Z,50.61
2019-06-10T07:59:23.362Z,49.80
2019-06-10T08:01:56.616Z,47.88
2019-06-10T08:04:29.694Z,47.16
2019-06-10T08:07:03.331Z,46.28
2019-06-10T08:09:37.340Z,45.81
2019-06-10T08:12:12.612Z,46.42
2019-06-10T08:14:45.777Z,46.58
2019-06-10T08:17:18.744Z,45.86
2019-06-10T08:19:54.062Z,45.30
2019-06-10T08:22:33.497Z,45.11
2019-06-10T08:25:04.945Z,43.71
2019-06-10T08:27:36.607Z,42.82
2019-06-10T08:30:18.593Z,42.56
2019-06-10T08:32:47.156Z,42.05
2019-06-10T08:35:35.003Z,41.36
2019-06-10T08:37:54.257Z,42.26
2019-06-10T08:40:27.458Z,41.46
2019-06-10T08:43:04.016Z,41.26
2019-06-10T08:45:36.887Z,42.06
2019-06-10T08:48:09.857Z,43.92
2019-06-10T08:50:46.612Z,44.16
2019-06-10T08:53:18.193Z,43.58
2019-06-10T08:55:53.470Z,43.59
2019-06-10T08:58:25.874Z,44.53
2019-06-10T09:00:59.122Z,44.29
2019-06-10T09:03:32.507Z,44.44
2019-06-10T09:06:05.615Z,43.75
2019-06-10T09:08:40.854Z,43.40
2019-06-10T09:11:13.275Z,42.52
2019-06-10T09:13:48.062Z,41.94
2019-06-10T09:16:22.903Z,41.96
2019-06-10T09:18:55.646Z,42.08
2019-06-10T09:21:28.515Z,43.14
2019-06-10T09:24:03.931Z,42.28
2019-06-10T09:26:36.312Z,42.22
2019-06-10T09:29:09.168Z,40.96
2019-06-10T09:31:46.718Z,40.99
2019-06-10T09:34:16.511Z,39.87
2019-06-10T09:36:54.059Z,39.68
2019-06-10T09:39:24.100Z,39.59
2019-06-10T09:42:02.664Z,39.43
2019-06-10T09:44:33.362Z,38.50
2019-06-10T09:47:07.037Z,38.34
2019-06-10T09:49:45.334Z,39.69
2019-06-10T09:52:15.918Z,37.84
2019-06-10T09:54:55.706Z,37.83
2019-06-10T09:57:23.962Z,38.77
2019-06-10T09:59:56.890Z,38.28
2019-06-10T10:02:29.832Z,36.06
2019-06-10T10:05:02.958Z,36.06
2019-06-10T10:07:36.627Z,36.43
2019-06-10T10:10:12.866Z,37.72
2019-06-10T10:12:47.556Z,38.95
2019-06-10T10:15:27.465Z,39.15
2019-06-10T10:17:56.392Z,39.48
2019-06-10T10:20:29.733Z,39.64
2019-06-10T10:23:02.850Z,40.11
2019-06-10T10:25:35.777Z,39.74
2019-06-10T10:28:08.896Z,40.08
2019-06-10T10:30:45.527Z,39.50
2019-06-10T10:33:18.973Z,40.77
2019-06-10T10:35:52.643Z,41.31
2019-06-10T10:38:25.530Z,40.71
2019-06-10T10:40:59.344Z,40.54
2019-06-10T10:43:36.954Z,38.88
2019-06-10T10:46:07.352Z,39.17
2019-06-10T10:48:40.313Z,38.98
2019-06-10T10:51:13.434Z,38.60
2019-06-10T10:53:50.567Z,38.81
2019-06-10T10:56:22.331Z,39.33
2019-06-10T10:58:58.549Z,39.69
2019-06-10T11:01:33.376Z,39.66
2019-06-10T11:04:06.509Z,39.70
2019-06-10T11:06:39.392Z,39.86
2019-06-10T11:09:12.982Z,39.43
2019-06-10T11:11:47.213Z,39.36
2019-06-10T11:14:22.862Z,39.45
2019-06-10T11:16:57.050Z,39.89
2019-06-10T11:19:29.431Z,39.78
2019-06-10T11:22:03.012Z,40.34
2019-06-10T11:24:41.097Z,39.63
2019-06-10T11:27:12.751Z,38.67
2019-06-10T11:29:46.155Z,39.20
2019-06-10T11:32:19.169Z,37.42
2019-06-10T11:34:56.548Z,36.13
2019-06-10T11:37:27.814Z,35.83
2019-06-10T11:40:02.914Z,35.26
2019-06-10T11:42:35.360Z,33.68
2019-06-10T11:45:08.822Z,33.44
2019-06-10T11:47:43.138Z,32.82
2019-06-10T11:50:17.529Z,32.38
2019-06-10T11:52:55.435Z,32.10
2019-06-10T11:55:25.233Z,31.75
2019-06-10T11:57:59.326Z,31.67
2019-06-10T12:00:33.318Z,32.12
2019-06-10T12:03:07.850Z,32.12
2019-06-10T12:05:40.847Z,32.92
2019-06-10T12:08:13.741Z,33.79
2019-06-10T12:10:46.664Z,33.25
2019-06-10T12:13:22.462Z,33.14
2019-06-10T12:16:34.942Z,30.94
2019-06-10T12:18:29.057Z,30.94
2019-06-10T12:21:03.681Z,30.02
2019-06-10T12:23:36.906Z,29.92
2019-06-10T12:26:09.963Z,30.75
2019-06-10T12:28:43.313Z,30.32
2019-06-10T12:31:16.399Z,30.37
2019-06-10T12:33:51.142Z,29.54
2019-06-10T12:36:24.537Z,29.65
2019-06-10T12:39:02.345Z,30.24
2019-06-10T12:41:33.945Z,31.71
2019-06-10T12:44:09.062Z,31.71
2019-06-10T12:46:43.198Z,32.39
2019-06-10T12:49:18.489Z,31.63
2019-06-10T12:51:52.894Z,31.67
2019-06-10T12:54:27.403Z,30.97
2019-06-10T12:57:00.687Z,30.97
2019-06-10T12:59:34.647Z,30.23
2019-06-10T13:02:19.028Z,30.23
2019-06-10T13:04:45.270Z,29.82
2019-06-10T13:07:19.587Z,29.82
2019-06-10T13:09:57.784Z,30.16
2019-06-10T13:12:33.247Z,30.55
2019-06-10T13:15:08.907Z,31.05
2019-06-10T13:17:43.976Z,31.18
2019-06-10T13:20:16.913Z,30.34
2019-06-10T13:22:49.880Z,31.01
2019-06-10T13:25:24.385Z,31.29
2019-06-10T13:27:57.756Z,31.44
2019-06-10T13:30:34.169Z,31.63
2019-06-10T13:33:10.787Z,31.52
2019-06-10T13:35:41.747Z,31.52
2019-06-10T13:38:15.642Z,31.90
2019-06-10T13:40:48.616Z,32.94
2019-06-10T13:43:23.109Z,32.94
2019-06-10T13:45:56.387Z,33.00
2019-06-10T13:48:29.392Z,30.72
2019-06-10T13:51:08.263Z,31.26
2019-06-10T13:53:37.025Z,31.26
2019-06-10T13:56:37.027Z,31.42
2019-06-10T13:58:46.190Z,31.28
2019-06-10T14:01:21.910Z,29.85
2019-06-10T14:03:53.977Z,29.44
2019-06-10T14:06:44.592Z,29.42
2019-06-10T14:09:06.817Z,30.58
2019-06-10T14:11:38.500Z,30.33
2019-06-10T14:14:14.754Z,29.71
2019-06-10T14:16:46.275Z,30.20
2019-06-10T14:19:23.057Z,30.00
2019-06-10T14:21:55.291Z,29.94
2019-06-10T14:24:28.388Z,30.21
2019-06-10T14:27:04.255Z,30.26
2019-06-10T14:29:35.984Z,29.71
2019-06-10T14:32:09.243Z,30.44
2019-06-10T14:34:42.572Z,30.71
2019-06-10T14:37:29.663Z,31.62
2019-06-10T14:39:52.942Z,32.00
2019-06-10T14:42:26.046Z,32.86
2019-06-10T14:44:59.397Z,32.89
2019-06-10T14:47:32.568Z,33.30
2019-06-10T14:50:06.861Z,32.50
2019-06-10T14:52:39.936Z,32.90
2019-06-10T14:55:16.614Z,33.23
2019-06-10T14:57:48.074Z,32.81
2019-06-10T15:00:23.625Z,32.20
2019-06-10T15:02:56.478Z,30.29
2019-06-10T15:05:29.655Z,30.62
2019-06-10T15:08:03.299Z,30.54
2019-06-10T15:10:36.304Z,30.65
2019-06-10T15:13:09.725Z,30.62
2019-06-10T15:15:42.731Z,30.68
2019-06-10T15:18:18.023Z,30.48
2019-06-10T15:20:53.130Z,30.73
2019-06-10T15:23:25.324Z,30.93
2019-06-10T15:25:58.157Z,31.29
2019-06-10T15:28:31.142Z,31.72
2019-06-10T15:31:05.643Z,32.09
2019-06-10T15:33:38.750Z,32.09
2019-06-10T15:36:13.069Z,32.31
2019-06-10T15:38:46.624Z,32.11
2019-06-10T15:41:21.330Z,32.29
2019-06-10T15:43:54.206Z,32.13
2019-06-10T15:46:27.110Z,31.98
2019-06-10T15:49:02.343Z,31.96
2019-06-10T15:51:35.745Z,32.39
2019-06-10T15:54:10.686Z,32.32
2019-06-10T15:56:52.944Z,32.29
2019-06-10T15:59:23.310Z,32.55
2019-06-10T16:01:57.380Z,32.87
2019-06-10T16:04:34.875Z,32.97
2019-06-10T16:07:06.057Z,33.15
2019-06-10T16:09:38.997Z,33.50
2019-06-10T16:12:14.353Z,33.57
2019-06-10T16:14:46.588Z,33.59
2019-06-10T16:17:19.478Z,33.58
2019-06-10T16:19:53.153Z,33.65
2019-06-10T16:22:27.236Z,34.06
2019-06-10T16:25:00.228Z,34.69
2019-06-10T16:27:46.389Z,35.36
2019-06-10T16:30:08.821Z,35.48
2019-06-10T16:32:41.612Z,35.97
2019-06-10T16:35:14.816Z,36.06
2019-06-10T16:37:48.110Z,36.54
2019-06-10T16:40:21.795Z,36.75
2019-06-10T16:42:55.753Z,36.76
2019-06-10T16:45:30.834Z,37.53
2019-06-10T16:48:03.431Z,37.68
2019-06-10T16:50:36.338Z,37.71
2019-06-10T16:53:09.510Z,37.98
2019-06-10T16:55:43.516Z,37.98
2019-06-10T16:58:18.215Z,38.18
2019-06-10T17:00:52.438Z,38.69
2019-06-10T17:03:27.242Z,38.87
2019-06-10T17:06:02.508Z,38.95
2019-06-10T17:08:36.184Z,39.20
2019-06-10T17:11:13.067Z,39.38
2019-06-10T17:13:46.147Z,39.36
2019-06-10T17:16:20.892Z,39.24
2019-06-10T17:18:58.137Z,39.50
2019-06-10T17:21:34.707Z,39.65
2019-06-10T17:24:12.630Z,39.68
2019-06-10T17:26:44.217Z,39.93
2019-06-10T17:29:17.379Z,40.21
2019-06-10T17:31:53.148Z,40.14
2019-06-10T17:34:31.397Z,40.43
2019-06-10T17:37:04.528Z,40.54
2019-06-10T17:39:37.620Z,40.70
2019-06-10T17:42:16.814Z,40.95
2019-06-10T17:44:53.006Z,41.12
2019-06-10T17:47:27.748Z,41.19
2019-06-10T17:50:04.045Z,41.20
2019-06-10T17:52:39.019Z,41.30
2019-06-10T17:55:12.692Z,41.61
2019-06-10T17:57:50.483Z,41.55
2019-06-10T18:00:26.526Z,41.74
2019-06-10T18:03:03.721Z,41.85
2019-06-10T18:05:38.861Z,41.99
2019-06-10T18:08:13.090Z,42.23
2019-06-10T18:10:53.630Z,42.36
2019-06-10T18:13:30.082Z,42.56
2019-06-10T18:16:05.400Z,42.72
2019-06-10T18:18:38.777Z,43.00
2019-06-10T18:21:14.512Z,43.08
2019-06-10T18:23:55.747Z,43.31
2019-06-10T18:26:35.926Z,43.41
2019-06-10T18:29:09.529Z,43.65
2019-06-10T18:31:43.528Z,43.78
2019-06-10T18:34:16.954Z,44.12
2019-06-10T18:36:52.125Z,44.12
2019-06-10T18:39:27.732Z,44.46
2019-06-10T18:42:03.194Z,44.57
2019-06-10T18:44:37.551Z,44.80
2019-06-10T18:47:13.480Z,44.79
2019-06-10T18:49:46.767Z,45.05
2019-06-10T18:52:23.295Z,45.15
2019-06-10T18:54:57.633Z,45.28
2019-06-10T18:57:36.153Z,45.41
2019-06-10T19:00:14.688Z,45.64
2019-06-10T19:02:46.859Z,45.82
2019-06-10T19:05:24.274Z,46.10
2019-06-10T19:07:58.631Z,46.25
2019-06-10T19:10:35.277Z,46.25
2019-06-10T19:13:07.923Z,46.38
2019-06-10T19:15:44.537Z,46.56
2019-06-10T19:18:22.935Z,46.91
2019-06-10T19:21:03.827Z,47.26
2019-06-10T19:23:38.222Z,47.79
2019-06-10T19:26:13.471Z,48.31
2019-06-10T19:28:46.441Z,48.46
2019-06-10T19:31:19.687Z,48.54
2019-06-10T19:33:52.738Z,48.85
2019-06-10T19:36:25.732Z,48.73
2019-06-10T19:38:58.848Z,49.22
2019-06-10T19:41:35.741Z,49.32
2019-06-10T19:44:06.859Z,49.47
2019-06-10T19:46:39.843Z,49.72
2019-06-10T19:49:13.363Z,49.79
2019-06-10T19:51:47.708Z,49.78
2019-06-10T19:54:21.050Z,49.99
2019-06-10T19:56:55.732Z,50.03
2019-06-10T19:59:29.087Z,50.17
2019-06-10T20:02:03.355Z,50.11
2019-06-10T20:04:42.822Z,50.23
2019-06-10T20:07:16.954Z,50.57
2019-06-10T20:09:52.248Z,51.02
2019-06-10T20:12:25.255Z,51.25
2019-06-10T20:15:02.217Z,51.15
2019-06-10T20:17:33.428Z,51.19
2019-06-10T20:20:07.881Z,51.37
2019-06-10T20:22:45.478Z,51.80
2019-06-10T20:25:18.736Z,52.29
2019-06-10T20:27:52.374Z,52.25
2019-06-10T20:30:28.984Z,52.23
2019-06-10T20:33:03.406Z,52.85
2019-06-10T20:35:35.415Z,52.40
2019-06-10T20:38:13.087Z,52.91
2019-06-10T20:40:46.041Z,53.06
2019-06-10T20:43:22.280Z,53.60
2019-06-10T20:45:58.155Z,53.42
2019-06-10T20:48:29.840Z,54.35
2019-06-10T20:51:03.300Z,55.06
2019-06-10T20:53:38.066Z,55.45
2019-06-10T20:56:12.475Z,55.95
2019-06-10T20:58:46.792Z,55.77
2019-06-10T21:01:24.751Z,56.42
2019-06-10T21:03:55.239Z,56.55
2019-06-10T21:06:32.546Z,56.86
2019-06-10T21:09:08.368Z,56.55
2019-06-10T21:11:44.868Z,56.21
2019-06-10T21:14:16.386Z,56.26
2019-06-10T21:16:51.095Z,56.44
2019-06-10T21:19:23.946Z,56.24
2019-06-10T21:21:56.971Z,56.53
2019-06-10T21:24:32.216Z,56.68
2019-06-10T21:27:04.593Z,56.73
2019-06-10T21:29:37.500Z,56.93
2019-06-10T21:32:12.438Z,57.66
2019-06-10T21:34:46.568Z,57.74
2019-06-10T21:37:22.573Z,57.36
2019-06-10T21:39:55.600Z,57.12
2019-06-10T21:42:28.620Z,57.14
2019-06-10T21:45:03.467Z,58.25
2019-06-10T21:47:36.025Z,58.39
2019-06-10T21:50:09.323Z,58.79
2019-06-10T21:52:44.033Z,59.06
2019-06-10T21:55:16.897Z,58.85
2019-06-10T21:57:51.565Z,59.07
2019-06-10T22:00:29.760Z,59.10
2019-06-10T22:03:03.056Z,59.15
2019-06-10T22:05:36.029Z,59.19
2019-06-10T22:08:08.941Z,59.52
2019-06-10T22:10:44.209Z,59.41
2019-06-10T22:13:17.461Z,59.68
2019-06-10T22:15:53.443Z,59.82
2019-06-10T22:18:25.165Z,59.99
2019-06-10T22:20:58.184Z,60.42
2019-06-10T22:23:33.115Z,60.47
2019-06-10T22:26:06.329Z,60.56
2019-06-10T22:28:39.587Z,60.79
2019-06-10T22:31:22.362Z,60.74
2019-06-10T22:33:47.251Z,60.85
2019-06-10T22:36:20.214Z,61.12
2019-06-10T22:38:55.784Z,61.27
2019-06-10T22:41:27.883Z,61.21
2019-06-10T22:44:03.324Z,61.41
2019-06-10T22:46:35.645Z,61.36
2019-06-10T22:49:08.591Z,61.47
2019-06-10T22:51:42.837Z,61.29
2019-06-10T22:54:16.119Z,61.32
2019-06-10T22:56:49.426Z,61.21
2019-06-10T22:59:22.947Z,61.04
2019-06-10T23:01:56.976Z,60.71
2019-06-10T23:04:33.136Z,60.93
2019-06-10T23:07:05.455Z,61.17
2019-06-10T23:09:38.454Z,61.38
2019-06-10T23:12:12.036Z,61.64
2019-06-10T23:14:45.231Z,62.02
2019-06-10T23:17:18.167Z,62.47
2019-06-10T23:19:53.568Z,62.80
2019-06-10T23:22:25.672Z,63.03
2019-06-10T23:24:59.842Z,63.40
2019-06-10T23:27:33.622Z,63.41
2019-06-10T23:30:11.445Z,63.17
2019-06-10T23:32:42.340Z,63.01
2019-06-10T23:35:15.561Z,62.83
2019-06-10T23:37:48.780Z,62.54
2019-06-10T23:40:23.370Z,62.24
2019-06-10T23:42:57.183Z,62.21
2019-06-10T23:45:32.600Z,62.26
2019-06-10T23:48:05.198Z,62.33
2019-06-10T23:50:38.179Z,62.18
2019-06-10T23:53:13.246Z,62.38
2019-06-10T23:55:45.767Z,62.17
2019-06-10T23:58:21.932Z,62.16
